Huvudsida
METAR-TAF:

METAR-TAF

Flygplatser :

Juneau, Alaska, USA

latitud: 58-21-17N, longitud: 134-34-34W, höjd: 6 m

Aktuellt väderrapport

Denna rapport gjordes för 50 minuter sedan, klockan 23:53 UTC
Vind 9 kt från väst
Temperatur 24°C
Fuktighet 50%
Tryck 1024 hPa
Sikt: 16.1 km
Få moln på en höjd av 35000 ft

METAR: PAJN 212353Z 27009KT 10SM FEW350 24/13 A3023 RMK AO2 SLP236 T02390133 10239 20178 58009

Tid: 16:43 (00:43 UTC)

Väderprognos

Denna rapport gjordes för 1 timme och 11 minuter sedan, klockan 23:32 UTC
Prognos gäller från 22 kl. 00 UTC till 22 kl. 24 UTC
Vind 9 kt från väst
Sikt: 10 km
Klar himmel
Från 22 kl. 0700 UTC
Vind 4 kt från väst/nordväst
Sikt: 10 km
Få moln på en höjd av 6000 ft

TAF: PAJN 212332Z 2200/2224 28009KT P6SM SKC FM220700 30004KT P6SM FEW060

Aktuella väderrapporter och prognoser från 4000 flygplatser (METAR- och TAF-rapporter).

De tillgängliga stationerna syns som gula och röda prickar på kartan.

För musen över prickarna för att se namnen på stationerna.

Klicka sedan för att få väderrapporter och prognoser.

För att ändra kartan: Klicka på de gröna knapparna med ett svart kors på för att zooma in; den gröna knappen med ett streck på för att zooma ut; eller på de gröna pilarna för angränsande kartor.


METAR-TAF: